Etusivu
METAR-TAF:

METAR-TAF

Lentoasemat :

Yankton, Etelä-Dakota, Yhdysvallat

Leveyspiiri: 42-55N, Pituuspiiri: 097-23W, korkeus merenpinnasta: 398 m

Tämänhetkinen sää

Tämä raportti tehtiin 10 minuuttia sitten, kello 21.56 UTC
Tuuli 4 kn idästä/kaakosta
Lämpötila 33°C
Kosteus 67%
Ilmanpaine 1013 hPa
Näkyvyys: 9.7 km
selkeää
usvaa

METAR: KYKN 132156Z AUTO 11004KT 6SM HZ CLR 33/26 A2992 RMK AO2 SLP130 T03280261

Aika: 17:06 (22:06 UTC)


TAF: puuttuu

Säähavainnot ja -ennusteet yli 4000 lentoasemalta (METAR- ja TAF-raportit).

Käytössä olevat sääasemat on merkitty karttaan keltaisilla ja punaisilla pisteillä.

Aseta hiiri pisteen päälle nähdäksesi sääaseman nimen.

Klikkaa sitten nähdäksesi säähavainnot ja -ennusteet.

Kartan vaihtaminen: klikkaa mustalla rastilla varustettuja vihreitä pisteitä, niin voit zoomata sisään; viivalla varustettua vihreää pistettä, niin voit zoomata ulos tai vihreitä nuolia, niin pääset viereisille kartoille.


METAR-TAF: